sensor_id;sensor_type;location;lat;lon;timestamp;P1;durP1;ratioP1;P2;durP2;ratioP2
13592;SDS011;6867;50.998;4.250;2023-03-03T00:01:15;24.67;;;12.80;;
13592;SDS011;6867;50.998;4.250;2023-03-03T00:03:42;24.77;;;13.40;;
13592;SDS011;6867;50.998;4.250;2023-03-03T00:06:10;23.43;;;13.10;;
13592;SDS011;6867;50.998;4.250;2023-03-03T00:08:38;24.70;;;13.07;;
13592;SDS011;6867;50.998;4.250;2023-03-03T00:11:05;26.20;;;13.63;;
13592;SDS011;6867;50.998;4.250;2023-03-03T00:13:36;31.57;;;16.60;;
13592;SDS011;6867;50.998;4.250;2023-03-03T00:16:13;29.23;;;13.93;;
13592;SDS011;6867;50.998;4.250;2023-03-03T00:18:49;25.93;;;13.50;;
13592;SDS011;6867;50.998;4.250;2023-03-03T00:21:22;25.50;;;13.27;;
13592;SDS011;6867;50.998;4.250;2023-03-03T00:23:53;26.73;;;13.33;;
13592;SDS011;6867;50.998;4.250;2023-03-03T00:26:22;25.93;;;13.60;;
13592;SDS011;6867;50.998;4.250;2023-03-03T00:28:55;25.03;;;13.40;;
13592;SDS011;6867;50.998;4.250;2023-03-03T00:31:24;26.57;;;13.40;;
13592;SDS011;6867;50.998;4.250;2023-03-03T00:34:09;28.07;;;13.87;;
13592;SDS011;6867;50.998;4.250;2023-03-03T00:36:49;25.57;;;12.30;;
13592;SDS011;6867;50.998;4.250;2023-03-03T00:39:21;25.07;;;13.00;;
13592;SDS011;6867;50.998;4.250;2023-03-03T00:41:54;26.63;;;13.80;;
13592;SDS011;6867;50.998;4.250;2023-03-03T00:44:36;26.03;;;13.20;;
13592;SDS011;6867;50.998;4.250;2023-03-03T00:49:59;34.93;;;16.00;;
13592;SDS011;6867;50.998;4.250;2023-03-03T00:53:04;28.13;;;13.77;;
13592;SDS011;6867;50.998;4.250;2023-03-03T00:55:32;27.53;;;14.60;;
13592;SDS011;6867;50.998;4.250;2023-03-03T00:58:01;24.50;;;14.13;;
13592;SDS011;6867;50.998;4.250;2023-03-03T01:00:30;28.17;;;15.67;;
13592;SDS011;6867;50.998;4.250;2023-03-03T01:02:56;29.73;;;15.53;;
13592;SDS011;6867;50.998;4.250;2023-03-03T01:05:27;27.43;;;14.27;;
13592;SDS011;6867;50.998;4.250;2023-03-03T01:07:54;28.40;;;15.37;;
13592;SDS011;6867;50.998;4.250;2023-03-03T01:10:20;31.97;;;15.40;;
13592;SDS011;6867;50.998;4.250;2023-03-03T01:12:47;28.97;;;15.20;;
13592;SDS011;6867;50.998;4.250;2023-03-03T01:15:14;33.87;;;15.37;;
13592;SDS011;6867;50.998;4.250;2023-03-03T01:17:42;25.37;;;14.10;;
13592;SDS011;6867;50.998;4.250;2023-03-03T01:20:10;35.20;;;15.50;;
13592;SDS011;6867;50.998;4.250;2023-03-03T01:22:39;27.47;;;15.23;;
13592;SDS011;6867;50.998;4.250;2023-03-03T01:25:06;34.37;;;15.33;;
13592;SDS011;6867;50.998;4.250;2023-03-03T01:27:34;31.60;;;15.00;;
13592;SDS011;6867;50.998;4.250;2023-03-03T01:30:01;29.20;;;14.40;;
13592;SDS011;6867;50.998;4.250;2023-03-03T01:32:29;31.60;;;15.93;;
13592;SDS011;6867;50.998;4.250;2023-03-03T01:34:57;28.30;;;15.27;;
13592;SDS011;6867;50.998;4.250;2023-03-03T01:37:24;26.93;;;15.13;;
13592;SDS011;6867;50.998;4.250;2023-03-03T01:39:50;28.20;;;14.47;;
13592;SDS011;6867;50.998;4.250;2023-03-03T01:42:18;35.77;;;15.17;;
13592;SDS011;6867;50.998;4.250;2023-03-03T01:44:45;29.63;;;15.00;;
13592;SDS011;6867;50.998;4.250;2023-03-03T01:47:12;25.87;;;13.87;;
13592;SDS011;6867;50.998;4.250;2023-03-03T01:49:42;25.07;;;14.07;;
13592;SDS011;6867;50.998;4.250;2023-03-03T01:52:16;30.93;;;14.50;;
13592;SDS011;6867;50.998;4.250;2023-03-03T01:54:52;28.37;;;14.80;;
13592;SDS011;6867;50.998;4.250;2023-03-03T01:57:23;34.30;;;15.93;;
13592;SDS011;6867;50.998;4.250;2023-03-03T01:59:55;29.90;;;14.80;;
13592;SDS011;6867;50.998;4.250;2023-03-03T02:02:24;29.87;;;16.00;;
13592;SDS011;6867;50.998;4.250;2023-03-03T02:04:53;28.57;;;14.47;;
13592;SDS011;6867;50.998;4.250;2023-03-03T02:07:22;26.83;;;13.93;;
13592;SDS011;6867;50.998;4.250;2023-03-03T02:09:54;35.80;;;16.03;;
13592;SDS011;6867;50.998;4.250;2023-03-03T02:12:25;34.57;;;15.03;;
13592;SDS011;6867;50.998;4.250;2023-03-03T02:14:56;33.30;;;15.93;;
13592;SDS011;6867;50.998;4.250;2023-03-03T02:17:23;31.50;;;14.67;;
13592;SDS011;6867;50.998;4.250;2023-03-03T02:19:51;32.47;;;14.60;;
13592;SDS011;6867;50.998;4.250;2023-03-03T02:22:29;26.73;;;14.97;;
13592;SDS011;6867;50.998;4.250;2023-03-03T02:25:00;29.10;;;14.23;;
13592;SDS011;6867;50.998;4.250;2023-03-03T02:27:31;27.03;;;14.33;;
13592;SDS011;6867;50.998;4.250;2023-03-03T02:30:07;30.10;;;14.70;;
13592;SDS011;6867;50.998;4.250;2023-03-03T02:32:36;31.27;;;15.23;;
13592;SDS011;6867;50.998;4.250;2023-03-03T02:38:13;27.37;;;14.40;;
13592;SDS011;6867;50.998;4.250;2023-03-03T02:40:48;28.33;;;15.10;;
13592;SDS011;6867;50.998;4.250;2023-03-03T02:43:27;30.33;;;14.67;;
13592;SDS011;6867;50.998;4.250;2023-03-03T02:45:59;30.90;;;14.63;;
13592;SDS011;6867;50.998;4.250;2023-03-03T02:48:25;28.40;;;14.83;;
13592;SDS011;6867;50.998;4.250;2023-03-03T02:50:52;31.37;;;14.73;;
13592;SDS011;6867;50.998;4.250;2023-03-03T02:53:19;27.20;;;15.00;;
13592;SDS011;6867;50.998;4.250;2023-03-03T02:55:45;33.47;;;15.30;;
13592;SDS011;6867;50.998;4.250;2023-03-03T02:58:12;28.53;;;15.10;;
13592;SDS011;6867;50.998;4.250;2023-03-03T03:00:40;34.23;;;15.20;;
13592;SDS011;6867;50.998;4.250;2023-03-03T03:03:07;29.87;;;15.77;;
13592;SDS011;6867;50.998;4.250;2023-03-03T03:05:33;33.47;;;15.77;;
13592;SDS011;6867;50.998;4.250;2023-03-03T03:08:00;29.87;;;15.33;;
13592;SDS011;6867;50.998;4.250;2023-03-03T03:10:27;33.40;;;15.37;;
13592;SDS011;6867;50.998;4.250;2023-03-03T03:12:53;33.13;;;15.70;;
13592;SDS011;6867;50.998;4.250;2023-03-03T03:15:20;34.97;;;15.43;;
13592;SDS011;6867;50.998;4.250;2023-03-03T03:17:48;30.43;;;14.17;;
13592;SDS011;6867;50.998;4.250;2023-03-03T03:20:15;28.20;;;14.20;;
13592;SDS011;6867;50.998;4.250;2023-03-03T03:22:42;33.30;;;15.13;;
13592;SDS011;6867;50.998;4.250;2023-03-03T03:25:09;31.30;;;14.80;;
13592;SDS011;6867;50.998;4.250;2023-03-03T03:27:36;31.03;;;14.50;;
13592;SDS011;6867;50.998;4.250;2023-03-03T03:30:03;30.90;;;15.67;;
13592;SDS011;6867;50.998;4.250;2023-03-03T03:32:30;32.00;;;15.80;;
13592;SDS011;6867;50.998;4.250;2023-03-03T03:34:58;33.57;;;15.60;;
13592;SDS011;6867;50.998;4.250;2023-03-03T03:37:24;32.07;;;15.67;;
13592;SDS011;6867;50.998;4.250;2023-03-03T03:39:51;35.00;;;16.50;;
13592;SDS011;6867;50.998;4.250;2023-03-03T03:42:18;27.70;;;13.73;;
13592;SDS011;6867;50.998;4.250;2023-03-03T03:44:45;29.57;;;15.17;;
13592;SDS011;6867;50.998;4.250;2023-03-03T03:47:12;39.93;;;17.93;;
13592;SDS011;6867;50.998;4.250;2023-03-03T03:49:38;31.93;;;15.63;;
13592;SDS011;6867;50.998;4.250;2023-03-03T03:52:07;34.60;;;16.33;;
13592;SDS011;6867;50.998;4.250;2023-03-03T03:54:33;32.47;;;16.20;;
13592;SDS011;6867;50.998;4.250;2023-03-03T03:57:00;34.37;;;16.43;;
13592;SDS011;6867;50.998;4.250;2023-03-03T03:59:27;37.73;;;17.73;;
13592;SDS011;6867;50.998;4.250;2023-03-03T04:01:53;30.73;;;16.53;;
13592;SDS011;6867;50.998;4.250;2023-03-03T04:04:20;30.70;;;16.03;;
13592;SDS011;6867;50.998;4.250;2023-03-03T04:06:47;37.17;;;16.77;;
13592;SDS011;6867;50.998;4.250;2023-03-03T04:09:15;30.03;;;15.57;;
13592;SDS011;6867;50.998;4.250;2023-03-03T04:11:42;31.83;;;16.50;;
13592;SDS011;6867;50.998;4.250;2023-03-03T04:14:09;37.43;;;15.07;;
13592;SDS011;6867;50.998;4.250;2023-03-03T04:16:35;32.27;;;15.57;;
13592;SDS011;6867;50.998;4.250;2023-03-03T04:19:02;31.60;;;15.77;;
13592;SDS011;6867;50.998;4.250;2023-03-03T04:21:29;36.87;;;16.00;;
13592;SDS011;6867;50.998;4.250;2023-03-03T04:23:55;36.70;;;17.10;;
13592;SDS011;6867;50.998;4.250;2023-03-03T04:26:24;35.33;;;17.00;;
13592;SDS011;6867;50.998;4.250;2023-03-03T04:28:51;36.87;;;18.57;;
13592;SDS011;6867;50.998;4.250;2023-03-03T04:31:17;40.23;;;17.23;;
13592;SDS011;6867;50.998;4.250;2023-03-03T04:33:44;36.20;;;16.23;;
13592;SDS011;6867;50.998;4.250;2023-03-03T04:36:11;35.87;;;17.93;;
13592;SDS011;6867;50.998;4.250;2023-03-03T04:38:37;42.57;;;19.40;;
13592;SDS011;6867;50.998;4.250;2023-03-03T04:41:04;41.53;;;18.93;;
13592;SDS011;6867;50.998;4.250;2023-03-03T04:43:32;46.73;;;20.43;;
13592;SDS011;6867;50.998;4.250;2023-03-03T04:45:59;36.20;;;19.20;;
13592;SDS011;6867;50.998;4.250;2023-03-03T04:48:26;40.00;;;18.73;;
13592;SDS011;6867;50.998;4.250;2023-03-03T04:50:52;42.37;;;21.10;;
13592;SDS011;6867;50.998;4.250;2023-03-03T04:53:20;42.03;;;20.07;;
13592;SDS011;6867;50.998;4.250;2023-03-03T04:55:49;46.07;;;20.80;;
13592;SDS011;6867;50.998;4.250;2023-03-03T04:58:16;47.40;;;21.50;;
13592;SDS011;6867;50.998;4.250;2023-03-03T05:00:44;48.30;;;20.33;;
13592;SDS011;6867;50.998;4.250;2023-03-03T05:03:11;40.10;;;19.10;;
13592;SDS011;6867;50.998;4.250;2023-03-03T05:05:39;39.53;;;20.77;;
13592;SDS011;6867;50.998;4.250;2023-03-03T05:08:06;43.20;;;19.50;;
13592;SDS011;6867;50.998;4.250;2023-03-03T05:10:32;52.93;;;21.57;;
13592;SDS011;6867;50.998;4.250;2023-03-03T05:12:59;39.80;;;20.10;;
13592;SDS011;6867;50.998;4.250;2023-03-03T05:15:26;43.40;;;19.33;;
13592;SDS011;6867;50.998;4.250;2023-03-03T05:17:55;45.50;;;20.27;;
13592;SDS011;6867;50.998;4.250;2023-03-03T05:20:22;50.60;;;22.43;;
13592;SDS011;6867;50.998;4.250;2023-03-03T05:22:49;57.77;;;23.30;;
13592;SDS011;6867;50.998;4.250;2023-03-03T05:25:16;51.23;;;23.00;;
13592;SDS011;6867;50.998;4.250;2023-03-03T05:27:43;54.27;;;21.57;;
13592;SDS011;6867;50.998;4.250;2023-03-03T05:30:10;55.23;;;23.47;;
13592;SDS011;6867;50.998;4.250;2023-03-03T05:32:37;60.47;;;22.93;;
13592;SDS011;6867;50.998;4.250;2023-03-03T05:35:06;51.93;;;23.43;;
13592;SDS011;6867;50.998;4.250;2023-03-03T05:37:33;55.13;;;24.23;;
13592;SDS011;6867;50.998;4.250;2023-03-03T05:39:59;53.80;;;24.23;;
13592;SDS011;6867;50.998;4.250;2023-03-03T05:42:26;66.13;;;25.20;;
13592;SDS011;6867;50.998;4.250;2023-03-03T05:44:53;61.13;;;26.47;;
13592;SDS011;6867;50.998;4.250;2023-03-03T05:47:19;65.23;;;25.13;;
13592;SDS011;6867;50.998;4.250;2023-03-03T05:49:46;61.13;;;24.53;;
13592;SDS011;6867;50.998;4.250;2023-03-03T05:52:14;55.80;;;23.10;;
13592;SDS011;6867;50.998;4.250;2023-03-03T05:54:41;60.17;;;24.13;;
13592;SDS011;6867;50.998;4.250;2023-03-03T05:57:07;50.47;;;22.07;;
13592;SDS011;6867;50.998;4.250;2023-03-03T05:59:34;54.10;;;23.57;;
13592;SDS011;6867;50.998;4.250;2023-03-03T06:02:01;51.90;;;22.57;;
13592;SDS011;6867;50.998;4.250;2023-03-03T06:04:27;47.87;;;22.03;;
13592;SDS011;6867;50.998;4.250;2023-03-03T06:06:54;45.73;;;22.73;;
13592;SDS011;6867;50.998;4.250;2023-03-03T06:09:22;40.80;;;17.87;;
13592;SDS011;6867;50.998;4.250;2023-03-03T06:11:50;44.13;;;17.37;;
13592;SDS011;6867;50.998;4.250;2023-03-03T06:14:17;44.00;;;18.83;;
13592;SDS011;6867;50.998;4.250;2023-03-03T06:16:45;40.87;;;17.53;;
13592;SDS011;6867;50.998;4.250;2023-03-03T06:19:12;45.23;;;19.30;;
13592;SDS011;6867;50.998;4.250;2023-03-03T06:21:39;39.37;;;17.03;;
13592;SDS011;6867;50.998;4.250;2023-03-03T06:24:06;42.83;;;17.50;;
13592;SDS011;6867;50.998;4.250;2023-03-03T06:26:35;39.80;;;17.37;;
13592;SDS011;6867;50.998;4.250;2023-03-03T06:29:02;38.70;;;15.43;;
13592;SDS011;6867;50.998;4.250;2023-03-03T06:31:28;42.93;;;17.00;;
13592;SDS011;6867;50.998;4.250;2023-03-03T06:33:55;36.67;;;16.87;;
13592;SDS011;6867;50.998;4.250;2023-03-03T06:36:22;31.63;;;16.00;;
13592;SDS011;6867;50.998;4.250;2023-03-03T06:38:49;39.63;;;17.10;;
13592;SDS011;6867;50.998;4.250;2023-03-03T06:41:16;40.17;;;16.73;;
13592;SDS011;6867;50.998;4.250;2023-03-03T06:43:44;41.30;;;16.80;;
13592;SDS011;6867;50.998;4.250;2023-03-03T06:46:10;36.87;;;16.07;;
13592;SDS011;6867;50.998;4.250;2023-03-03T06:48:37;38.87;;;17.93;;
13592;SDS011;6867;50.998;4.250;2023-03-03T06:51:08;38.00;;;17.43;;
13592;SDS011;6867;50.998;4.250;2023-03-03T06:53:45;40.67;;;16.47;;
13592;SDS011;6867;50.998;4.250;2023-03-03T06:56:13;37.73;;;16.80;;
13592;SDS011;6867;50.998;4.250;2023-03-03T06:58:39;37.63;;;15.67;;
13592;SDS011;6867;50.998;4.250;2023-03-03T07:01:10;42.33;;;18.07;;
13592;SDS011;6867;50.998;4.250;2023-03-03T07:03:40;40.37;;;17.90;;
13592;SDS011;6867;50.998;4.250;2023-03-03T07:06:08;34.40;;;15.37;;
13592;SDS011;6867;50.998;4.250;2023-03-03T07:08:44;38.03;;;16.40;;
13592;SDS011;6867;50.998;4.250;2023-03-03T07:11:11;40.63;;;17.40;;
13592;SDS011;6867;50.998;4.250;2023-03-03T07:13:44;42.77;;;16.90;;
13592;SDS011;6867;50.998;4.250;2023-03-03T07:16:14;37.93;;;16.97;;
13592;SDS011;6867;50.998;4.250;2023-03-03T07:18:44;31.87;;;15.40;;
13592;SDS011;6867;50.998;4.250;2023-03-03T07:21:17;33.93;;;16.10;;
13592;SDS011;6867;50.998;4.250;2023-03-03T07:23:45;35.73;;;14.33;;
13592;SDS011;6867;50.998;4.250;2023-03-03T07:26:15;39.33;;;16.30;;
13592;SDS011;6867;50.998;4.250;2023-03-03T07:28:43;30.00;;;15.03;;
13592;SDS011;6867;50.998;4.250;2023-03-03T07:31:24;29.87;;;15.37;;
13592;SDS011;6867;50.998;4.250;2023-03-03T07:33:54;33.60;;;15.27;;
13592;SDS011;6867;50.998;4.250;2023-03-03T07:36:25;35.20;;;15.30;;
13592;SDS011;6867;50.998;4.250;2023-03-03T07:38:53;28.87;;;14.77;;
13592;SDS011;6867;50.998;4.250;2023-03-03T07:41:22;24.87;;;11.70;;
13592;SDS011;6867;50.998;4.250;2023-03-03T07:43:50;26.07;;;12.40;;
13592;SDS011;6867;50.998;4.250;2023-03-03T07:46:21;24.83;;;11.43;;
13592;SDS011;6867;50.998;4.250;2023-03-03T07:48:52;23.30;;;11.20;;
13592;SDS011;6867;50.998;4.250;2023-03-03T07:51:20;28.10;;;12.83;;
13592;SDS011;6867;50.998;4.250;2023-03-03T07:53:49;29.03;;;11.43;;
13592;SDS011;6867;50.998;4.250;2023-03-03T07:56:19;26.27;;;12.70;;
13592;SDS011;6867;50.998;4.250;2023-03-03T07:58:52;25.37;;;12.23;;
13592;SDS011;6867;50.998;4.250;2023-03-03T08:01:30;29.23;;;13.67;;
13592;SDS011;6867;50.998;4.250;2023-03-03T08:04:18;23.33;;;11.17;;
13592;SDS011;6867;50.998;4.250;2023-03-03T08:06:53;31.03;;;12.63;;
13592;SDS011;6867;50.998;4.250;2023-03-03T08:09:26;26.27;;;11.23;;
13592;SDS011;6867;50.998;4.250;2023-03-03T08:11:57;28.13;;;12.00;;
13592;SDS011;6867;50.998;4.250;2023-03-03T08:14:28;24.93;;;12.10;;
13592;SDS011;6867;50.998;4.250;2023-03-03T08:16:57;25.93;;;11.90;;
13592;SDS011;6867;50.998;4.250;2023-03-03T08:19:24;25.10;;;12.33;;
13592;SDS011;6867;50.998;4.250;2023-03-03T08:21:51;28.93;;;14.00;;
13592;SDS011;6867;50.998;4.250;2023-03-03T08:24:24;36.47;;;13.97;;
13592;SDS011;6867;50.998;4.250;2023-03-03T08:26:50;30.83;;;13.77;;
13592;SDS011;6867;50.998;4.250;2023-03-03T08:29:17;27.47;;;13.53;;
13592;SDS011;6867;50.998;4.250;2023-03-03T08:31:44;26.47;;;13.90;;
13592;SDS011;6867;50.998;4.250;2023-03-03T08:34:12;25.63;;;11.63;;
13592;SDS011;6867;50.998;4.250;2023-03-03T08:36:38;25.30;;;12.30;;
13592;SDS011;6867;50.998;4.250;2023-03-03T08:39:05;30.33;;;14.20;;
13592;SDS011;6867;50.998;4.250;2023-03-03T08:41:33;29.27;;;13.77;;
13592;SDS011;6867;50.998;4.250;2023-03-03T08:44:00;25.80;;;13.10;;
13592;SDS011;6867;50.998;4.250;2023-03-03T08:46:26;24.23;;;11.00;;
13592;SDS011;6867;50.998;4.250;2023-03-03T08:48:53;27.87;;;12.60;;
13592;SDS011;6867;50.998;4.250;2023-03-03T08:51:22;20.93;;;11.50;;
13592;SDS011;6867;50.998;4.250;2023-03-03T08:53:49;25.10;;;11.63;;
13592;SDS011;6867;50.998;4.250;2023-03-03T08:56:15;25.23;;;13.10;;
13592;SDS011;6867;50.998;4.250;2023-03-03T08:58:43;23.37;;;11.77;;
13592;SDS011;6867;50.998;4.250;2023-03-03T09:01:12;23.80;;;11.40;;
13592;SDS011;6867;50.998;4.250;2023-03-03T09:03:39;26.93;;;12.80;;
13592;SDS011;6867;50.998;4.250;2023-03-03T09:06:06;27.17;;;12.53;;
13592;SDS011;6867;50.998;4.250;2023-03-03T09:08:34;22.37;;;11.33;;
13592;SDS011;6867;50.998;4.250;2023-03-03T09:11:00;25.77;;;11.93;;
13592;SDS011;6867;50.998;4.250;2023-03-03T09:13:27;20.67;;;10.83;;
13592;SDS011;6867;50.998;4.250;2023-03-03T09:15:56;21.33;;;10.37;;
13592;SDS011;6867;50.998;4.250;2023-03-03T09:18:25;19.27;;;8.27;;
13592;SDS011;6867;50.998;4.250;2023-03-03T09:20:57;19.73;;;10.20;;
13592;SDS011;6867;50.998;4.250;2023-03-03T09:23:31;16.73;;;8.20;;
13592;SDS011;6867;50.998;4.250;2023-03-03T09:26:17;17.57;;;9.57;;
13592;SDS011;6867;50.998;4.250;2023-03-03T09:28:50;18.93;;;9.07;;
13592;SDS011;6867;50.998;4.250;2023-03-03T09:31:21;16.23;;;9.57;;
13592;SDS011;6867;50.998;4.250;2023-03-03T09:33:51;22.90;;;11.17;;
13592;SDS011;6867;50.998;4.250;2023-03-03T09:36:22;20.20;;;10.20;;
13592;SDS011;6867;50.998;4.250;2023-03-03T09:38:52;21.07;;;10.73;;
13592;SDS011;6867;50.998;4.250;2023-03-03T09:41:27;21.33;;;10.87;;
13592;SDS011;6867;50.998;4.250;2023-03-03T09:47:31;18.73;;;9.77;;
13592;SDS011;6867;50.998;4.250;2023-03-03T09:50:11;21.47;;;10.53;;
13592;SDS011;6867;50.998;4.250;2023-03-03T09:52:50;20.40;;;10.70;;
13592;SDS011;6867;50.998;4.250;2023-03-03T09:55:27;20.03;;;10.10;;
13592;SDS011;6867;50.998;4.250;2023-03-03T09:58:08;20.10;;;10.70;;
13592;SDS011;6867;50.998;4.250;2023-03-03T10:00:51;19.80;;;9.63;;
13592;SDS011;6867;50.998;4.250;2023-03-03T10:03:46;19.00;;;10.33;;
13592;SDS011;6867;50.998;4.250;2023-03-03T10:06:26;20.93;;;10.87;;
13592;SDS011;6867;50.998;4.250;2023-03-03T10:09:01;19.13;;;10.27;;
13592;SDS011;6867;50.998;4.250;2023-03-03T10:11:43;24.13;;;12.23;;
13592;SDS011;6867;50.998;4.250;2023-03-03T10:14:25;21.63;;;11.33;;
13592;SDS011;6867;50.998;4.250;2023-03-03T10:17:20;19.93;;;10.10;;
13592;SDS011;6867;50.998;4.250;2023-03-03T10:19:53;18.30;;;10.83;;
13592;SDS011;6867;50.998;4.250;2023-03-03T10:22:32;24.63;;;11.53;;
13592;SDS011;6867;50.998;4.250;2023-03-03T10:25:07;19.10;;;10.50;;
13592;SDS011;6867;50.998;4.250;2023-03-03T10:27:49;18.30;;;9.57;;
13592;SDS011;6867;50.998;4.250;2023-03-03T10:30:27;24.37;;;11.50;;
13592;SDS011;6867;50.998;4.250;2023-03-03T10:33:08;18.80;;;10.23;;
13592;SDS011;6867;50.998;4.250;2023-03-03T10:35:45;22.53;;;11.67;;
13592;SDS011;6867;50.998;4.250;2023-03-03T10:38:26;21.33;;;10.70;;
13592;SDS011;6867;50.998;4.250;2023-03-03T10:41:06;19.97;;;10.73;;
13592;SDS011;6867;50.998;4.250;2023-03-03T10:43:50;19.00;;;10.70;;
13592;SDS011;6867;50.998;4.250;2023-03-03T10:46:48;24.07;;;11.50;;
13592;SDS011;6867;50.998;4.250;2023-03-03T10:49:27;23.20;;;10.30;;
13592;SDS011;6867;50.998;4.250;2023-03-03T10:52:11;21.73;;;11.47;;
13592;SDS011;6867;50.998;4.250;2023-03-03T10:54:48;25.40;;;11.73;;
13592;SDS011;6867;50.998;4.250;2023-03-03T10:57:29;18.30;;;10.80;;
13592;SDS011;6867;50.998;4.250;2023-03-03T11:00:12;20.47;;;10.60;;
13592;SDS011;6867;50.998;4.250;2023-03-03T11:02:48;22.43;;;11.70;;
13592;SDS011;6867;50.998;4.250;2023-03-03T11:05:31;20.77;;;12.53;;
13592;SDS011;6867;50.998;4.250;2023-03-03T11:08:06;26.50;;;12.80;;
13592;SDS011;6867;50.998;4.250;2023-03-03T11:10:45;25.37;;;13.20;;
13592;SDS011;6867;50.998;4.250;2023-03-03T11:13:20;23.90;;;12.70;;
13592;SDS011;6867;50.998;4.250;2023-03-03T11:16:08;21.53;;;12.40;;
13592;SDS011;6867;50.998;4.250;2023-03-03T11:18:49;25.50;;;12.97;;
13592;SDS011;6867;50.998;4.250;2023-03-03T11:21:27;25.07;;;13.53;;
13592;SDS011;6867;50.998;4.250;2023-03-03T11:24:03;25.93;;;12.97;;
13592;SDS011;6867;50.998;4.250;2023-03-03T11:26:44;22.27;;;12.60;;
13592;SDS011;6867;50.998;4.250;2023-03-03T11:29:25;23.97;;;12.53;;
13592;SDS011;6867;50.998;4.250;2023-03-03T11:32:01;27.30;;;12.60;;
13592;SDS011;6867;50.998;4.250;2023-03-03T11:34:44;21.57;;;12.40;;
13592;SDS011;6867;50.998;4.250;2023-03-03T11:37:20;22.73;;;12.17;;
13592;SDS011;6867;50.998;4.250;2023-03-03T11:39:53;22.07;;;12.33;;
13592;SDS011;6867;50.998;4.250;2023-03-03T11:42:27;17.87;;;10.57;;
13592;SDS011;6867;50.998;4.250;2023-03-03T11:45:05;18.70;;;10.40;;
13592;SDS011;6867;50.998;4.250;2023-03-03T11:47:41;16.10;;;9.27;;
13592;SDS011;6867;50.998;4.250;2023-03-03T11:50:15;18.60;;;9.83;;
13592;SDS011;6867;50.998;4.250;2023-03-03T11:52:47;17.10;;;10.00;;
13592;SDS011;6867;50.998;4.250;2023-03-03T11:55:22;18.57;;;10.37;;
13592;SDS011;6867;50.998;4.250;2023-03-03T11:57:54;21.27;;;10.30;;
13592;SDS011;6867;50.998;4.250;2023-03-03T12:00:32;17.10;;;9.67;;
13592;SDS011;6867;50.998;4.250;2023-03-03T12:03:15;21.83;;;10.90;;
13592;SDS011;6867;50.998;4.250;2023-03-03T12:05:49;16.83;;;10.20;;
13592;SDS011;6867;50.998;4.250;2023-03-03T12:08:35;15.23;;;9.03;;
13592;SDS011;6867;50.998;4.250;2023-03-03T12:11:12;15.57;;;8.27;;
13592;SDS011;6867;50.998;4.250;2023-03-03T12:13:49;13.00;;;8.67;;
13592;SDS011;6867;50.998;4.250;2023-03-03T12:16:24;16.07;;;9.03;;
13592;SDS011;6867;50.998;4.250;2023-03-03T12:19:08;15.13;;;8.40;;
13592;SDS011;6867;50.998;4.250;2023-03-03T12:21:54;15.27;;;8.77;;
13592;SDS011;6867;50.998;4.250;2023-03-03T12:24:35;17.17;;;9.00;;
13592;SDS011;6867;50.998;4.250;2023-03-03T12:27:13;14.67;;;8.37;;
13592;SDS011;6867;50.998;4.250;2023-03-03T12:29:50;14.53;;;7.97;;
13592;SDS011;6867;50.998;4.250;2023-03-03T12:32:29;14.63;;;8.53;;
13592;SDS011;6867;50.998;4.250;2023-03-03T12:35:13;16.63;;;8.77;;
13592;SDS011;6867;50.998;4.250;2023-03-03T12:37:51;16.83;;;9.67;;
13592;SDS011;6867;50.998;4.250;2023-03-03T12:40:24;18.30;;;9.70;;
13592;SDS011;6867;50.998;4.250;2023-03-03T12:45:49;19.80;;;9.90;;
13592;SDS011;6867;50.998;4.250;2023-03-03T12:48:24;15.23;;;9.80;;
13592;SDS011;6867;50.998;4.250;2023-03-03T12:51:04;18.63;;;10.03;;
13592;SDS011;6867;50.998;4.250;2023-03-03T12:53:50;19.07;;;10.40;;
13592;SDS011;6867;50.998;4.250;2023-03-03T12:56:34;16.77;;;8.57;;
13592;SDS011;6867;50.998;4.250;2023-03-03T12:59:06;16.17;;;9.10;;
13592;SDS011;6867;50.998;4.250;2023-03-03T13:01:44;16.30;;;9.60;;
13592;SDS011;6867;50.998;4.250;2023-03-03T13:04:27;15.40;;;9.37;;
13592;SDS011;6867;50.998;4.250;2023-03-03T13:07:03;16.83;;;9.60;;
13592;SDS011;6867;50.998;4.250;2023-03-03T13:09:37;16.90;;;10.20;;
13592;SDS011;6867;50.998;4.250;2023-03-03T13:12:21;14.97;;;8.83;;
13592;SDS011;6867;50.998;4.250;2023-03-03T13:14:59;13.70;;;8.27;;
13592;SDS011;6867;50.998;4.250;2023-03-03T13:17:33;15.20;;;8.70;;
13592;SDS011;6867;50.998;4.250;2023-03-03T13:20:07;14.80;;;8.83;;
13592;SDS011;6867;50.998;4.250;2023-03-03T13:22:46;15.30;;;8.60;;
13592;SDS011;6867;50.998;4.250;2023-03-03T13:25:23;16.23;;;9.20;;
13592;SDS011;6867;50.998;4.250;2023-03-03T13:28:10;15.10;;;8.00;;
13592;SDS011;6867;50.998;4.250;2023-03-03T13:30:46;10.90;;;7.30;;
13592;SDS011;6867;50.998;4.250;2023-03-03T13:33:16;13.20;;;7.50;;
13592;SDS011;6867;50.998;4.250;2023-03-03T13:35:52;13.40;;;7.73;;
13592;SDS011;6867;50.998;4.250;2023-03-03T13:38:23;9.70;;;6.83;;
13592;SDS011;6867;50.998;4.250;2023-03-03T13:40:53;13.20;;;7.30;;
13592;SDS011;6867;50.998;4.250;2023-03-03T13:43:28;11.07;;;6.83;;
13592;SDS011;6867;50.998;4.250;2023-03-03T13:46:02;12.10;;;6.90;;
13592;SDS011;6867;50.998;4.250;2023-03-03T13:48:37;11.13;;;6.73;;
13592;SDS011;6867;50.998;4.250;2023-03-03T13:51:15;13.07;;;6.60;;
13592;SDS011;6867;50.998;4.250;2023-03-03T13:53:51;11.40;;;6.87;;
13592;SDS011;6867;50.998;4.250;2023-03-03T13:56:31;10.57;;;6.67;;
13592;SDS011;6867;50.998;4.250;2023-03-03T13:59:09;11.10;;;6.93;;
13592;SDS011;6867;50.998;4.250;2023-03-03T14:01:48;10.83;;;5.87;;
13592;SDS011;6867;50.998;4.250;2023-03-03T14:04:31;11.03;;;6.50;;
13592;SDS011;6867;50.998;4.250;2023-03-03T14:07:12;8.70;;;5.30;;
13592;SDS011;6867;50.998;4.250;2023-03-03T14:12:38;11.77;;;6.27;;
13592;SDS011;6867;50.998;4.250;2023-03-03T14:15:13;8.20;;;5.87;;
13592;SDS011;6867;50.998;4.250;2023-03-03T14:17:54;8.40;;;6.13;;
13592;SDS011;6867;50.998;4.250;2023-03-03T14:20:31;9.13;;;5.87;;
13592;SDS011;6867;50.998;4.250;2023-03-03T14:23:03;12.60;;;6.00;;
13592;SDS011;6867;50.998;4.250;2023-03-03T14:25:57;8.13;;;5.37;;
13592;SDS011;6867;50.998;4.250;2023-03-03T14:28:26;11.60;;;5.57;;
13592;SDS011;6867;50.998;4.250;2023-03-03T14:30:54;6.97;;;4.53;;
13592;SDS011;6867;50.998;4.250;2023-03-03T14:33:26;11.27;;;6.20;;
13592;SDS011;6867;50.998;4.250;2023-03-03T14:36:04;10.67;;;5.93;;
13592;SDS011;6867;50.998;4.250;2023-03-03T14:38:36;8.07;;;5.20;;
13592;SDS011;6867;50.998;4.250;2023-03-03T14:41:11;11.27;;;5.47;;
13592;SDS011;6867;50.998;4.250;2023-03-03T14:43:41;9.93;;;5.33;;
13592;SDS011;6867;50.998;4.250;2023-03-03T14:49:05;8.77;;;4.87;;
13592;SDS011;6867;50.998;4.250;2023-03-03T14:51:39;7.17;;;5.33;;
13592;SDS011;6867;50.998;4.250;2023-03-03T14:54:13;9.27;;;5.33;;
13592;SDS011;6867;50.998;4.250;2023-03-03T14:57:01;8.43;;;5.10;;
13592;SDS011;6867;50.998;4.250;2023-03-03T14:59:32;7.13;;;4.90;;
13592;SDS011;6867;50.998;4.250;2023-03-03T15:02:02;7.23;;;5.47;;
13592;SDS011;6867;50.998;4.250;2023-03-03T15:04:50;8.10;;;5.43;;
13592;SDS011;6867;50.998;4.250;2023-03-03T15:07:39;12.97;;;8.33;;
13592;SDS011;6867;50.998;4.250;2023-03-03T15:10:06;12.07;;;7.80;;
13592;SDS011;6867;50.998;4.250;2023-03-03T15:12:35;8.00;;;5.13;;
13592;SDS011;6867;50.998;4.250;2023-03-03T15:15:09;8.17;;;5.00;;
13592;SDS011;6867;50.998;4.250;2023-03-03T15:17:43;8.33;;;5.13;;
13592;SDS011;6867;50.998;4.250;2023-03-03T15:20:21;7.93;;;4.93;;
13592;SDS011;6867;50.998;4.250;2023-03-03T15:22:58;8.93;;;4.93;;
13592;SDS011;6867;50.998;4.250;2023-03-03T15:25:34;11.10;;;5.80;;